Clima Ilopango International Airport
Currently
Currently
Currently
METAR
MSSS 090325Z 0906/1006 35005KT 5000 BR FEW050 TX32/0918Z TN22/0912Z FM091700 16008KT 8000 FEW037
TAF
MSSS 090325Z 0906/1006 35005KT 5000 BR FEW050 TX32/0918Z TN22/0912Z FM091700 16008KT 8000 FEW037

Cámaras Aeroclub

Norte

Este

Sur

Oeste

AIS/AIP El Salvador

Autoridad de Aviación Civil (AAC) El Salvador

VER DOCUMENTO